Terminal Aerodrome Forecast
Issued by NWS

Home | Current Version | Previous Version | Text Only | Print | Product List | Glossary On
Versions: 1 2 3 4 5 6 7 8 9 10 11 12 13 14 15 16
000
FTUS44 KLZK 312320
TAFHRO
TAF
KHRO 312320Z 0100/0124 VRB05KT P6SM SCT100
     FM011000 VRB03KT 4SM BR SKC
     FM011400 16007KT P6SM SCT050
      AMD NOT SKED=

USA.gov is the U.S. government's official web portal to all federal, state and local government web resources and services.